sensor_id;sensor_type;location;lat;lon;timestamp;pressure;altitude;pressure_sealevel;temperature;humidity
44872;BME280;30602;51.060;17.226;2022-10-16T00:01:27;101531.89;;;11.85;100.00
44872;BME280;30602;51.060;17.226;2022-10-16T00:04:48;101533.48;;;11.81;100.00
44872;BME280;30602;51.060;17.226;2022-10-16T00:08:21;101535.39;;;11.78;100.00
44872;BME280;30602;51.060;17.226;2022-10-16T00:12:23;101541.39;;;11.75;100.00
44872;BME280;30602;51.060;17.226;2022-10-16T00:15:57;101537.08;;;11.80;100.00
44872;BME280;30602;51.060;17.226;2022-10-16T00:20:08;101536.72;;;11.85;100.00
44872;BME280;30602;51.060;17.226;2022-10-16T00:23:57;101536.01;;;11.93;100.00
44872;BME280;30602;51.060;17.226;2022-10-16T00:27:20;101538.07;;;11.95;100.00
44872;BME280;30602;51.060;17.226;2022-10-16T00:30:47;101538.72;;;11.98;100.00
44872;BME280;30602;51.060;17.226;2022-10-16T00:34:34;101531.86;;;12.00;100.00
44872;BME280;30602;51.060;17.226;2022-10-16T00:38:24;101538.89;;;12.10;100.00
44872;BME280;30602;51.060;17.226;2022-10-16T00:41:42;101532.59;;;12.12;100.00
44872;BME280;30602;51.060;17.226;2022-10-16T00:45:03;101534.06;;;12.12;100.00
44872;BME280;30602;51.060;17.226;2022-10-16T00:48:13;101537.97;;;12.16;100.00
44872;BME280;30602;51.060;17.226;2022-10-16T00:51:51;101537.30;;;12.11;100.00
44872;BME280;30602;51.060;17.226;2022-10-16T00:55:04;101529.07;;;12.10;100.00
44872;BME280;30602;51.060;17.226;2022-10-16T00:58:43;101535.91;;;12.10;100.00
44872;BME280;30602;51.060;17.226;2022-10-16T01:02:08;101539.95;;;12.08;100.00
44872;BME280;30602;51.060;17.226;2022-10-16T01:05:17;101542.59;;;12.05;100.00
44872;BME280;30602;51.060;17.226;2022-10-16T01:08:34;101540.41;;;12.03;100.00
44872;BME280;30602;51.060;17.226;2022-10-16T01:12:06;101538.58;;;12.03;100.00
44872;BME280;30602;51.060;17.226;2022-10-16T01:30:42;101530.05;;;12.16;100.00
44872;BME280;30602;51.060;17.226;2022-10-16T01:38:29;101545.13;;;12.16;100.00
44872;BME280;30602;51.060;17.226;2022-10-16T01:42:06;101528.90;;;12.05;100.00
44872;BME280;30602;51.060;17.226;2022-10-16T01:45:42;101535.41;;;12.10;100.00
44872;BME280;30602;51.060;17.226;2022-10-16T01:49:39;101528.59;;;12.12;100.00
44872;BME280;30602;51.060;17.226;2022-10-16T01:53:13;101524.07;;;12.17;100.00
44872;BME280;30602;51.060;17.226;2022-10-16T01:56:42;101523.72;;;12.12;100.00
44872;BME280;30602;51.060;17.226;2022-10-16T01:59:58;101541.73;;;12.11;100.00
44872;BME280;30602;51.060;17.226;2022-10-16T02:03:34;101546.79;;;12.10;100.00
44872;BME280;30602;51.060;17.226;2022-10-16T02:07:50;101547.56;;;12.08;100.00
44872;BME280;30602;51.060;17.226;2022-10-16T02:11:06;101541.22;;;12.10;100.00
44872;BME280;30602;51.060;17.226;2022-10-16T02:14:59;101540.73;;;12.09;100.00
44872;BME280;30602;51.060;17.226;2022-10-16T02:18:21;101538.53;;;12.05;100.00
44872;BME280;30602;51.060;17.226;2022-10-16T02:22:27;101548.05;;;12.08;100.00
44872;BME280;30602;51.060;17.226;2022-10-16T02:26:39;101548.54;;;12.11;100.00
44872;BME280;30602;51.060;17.226;2022-10-16T02:30:21;101554.18;;;12.13;100.00
44872;BME280;30602;51.060;17.226;2022-10-16T02:33:36;101551.72;;;12.16;100.00
44872;BME280;30602;51.060;17.226;2022-10-16T02:37:11;101559.72;;;12.15;100.00
44872;BME280;30602;51.060;17.226;2022-10-16T02:40:37;101568.62;;;12.22;100.00
44872;BME280;30602;51.060;17.226;2022-10-16T02:44:12;101573.68;;;12.24;100.00
44872;BME280;30602;51.060;17.226;2022-10-16T02:47:22;101577.58;;;12.28;100.00
44872;BME280;30602;51.060;17.226;2022-10-16T02:50:34;101573.59;;;12.25;100.00
44872;BME280;30602;51.060;17.226;2022-10-16T02:53:56;101577.06;;;12.25;100.00
44872;BME280;30602;51.060;17.226;2022-10-16T02:57:24;101575.09;;;12.21;100.00
44872;BME280;30602;51.060;17.226;2022-10-16T03:00:55;101569.98;;;12.19;100.00
44872;BME280;30602;51.060;17.226;2022-10-16T03:04:39;101573.66;;;12.21;100.00
44872;BME280;30602;51.060;17.226;2022-10-16T03:08:32;101578.09;;;12.26;100.00
44872;BME280;30602;51.060;17.226;2022-10-16T03:12:03;101579.25;;;12.26;100.00
44872;BME280;30602;51.060;17.226;2022-10-16T03:15:10;101579.82;;;12.29;100.00
44872;BME280;30602;51.060;17.226;2022-10-16T03:18:23;101584.71;;;12.29;100.00
44872;BME280;30602;51.060;17.226;2022-10-16T03:21:39;101588.99;;;12.30;100.00
44872;BME280;30602;51.060;17.226;2022-10-16T03:24:47;101591.55;;;12.36;100.00
44872;BME280;30602;51.060;17.226;2022-10-16T03:28:12;101590.18;;;12.46;100.00
44872;BME280;30602;51.060;17.226;2022-10-16T03:31:56;101592.70;;;12.45;100.00
44872;BME280;30602;51.060;17.226;2022-10-16T03:35:07;101593.48;;;12.41;100.00
44872;BME280;30602;51.060;17.226;2022-10-16T03:38:46;101597.00;;;12.40;100.00
44872;BME280;30602;51.060;17.226;2022-10-16T03:41:56;101604.35;;;12.36;100.00
44872;BME280;30602;51.060;17.226;2022-10-16T03:45:09;101600.91;;;12.26;100.00
44872;BME280;30602;51.060;17.226;2022-10-16T03:48:24;101606.70;;;12.33;100.00
44872;BME280;30602;51.060;17.226;2022-10-16T03:55:25;101618.92;;;12.36;100.00
44872;BME280;30602;51.060;17.226;2022-10-16T03:58:36;101615.05;;;12.35;100.00
44872;BME280;30602;51.060;17.226;2022-10-16T04:02:10;101608.88;;;12.36;100.00
44872;BME280;30602;51.060;17.226;2022-10-16T04:05:17;101612.27;;;12.40;100.00
44872;BME280;30602;51.060;17.226;2022-10-16T04:08:48;101608.27;;;12.38;100.00
44872;BME280;30602;51.060;17.226;2022-10-16T04:12:22;101613.30;;;12.34;100.00
44872;BME280;30602;51.060;17.226;2022-10-16T04:15:45;101617.13;;;12.36;100.00
44872;BME280;30602;51.060;17.226;2022-10-16T04:19:01;101617.97;;;12.33;100.00
44872;BME280;30602;51.060;17.226;2022-10-16T04:22:31;101620.50;;;12.30;100.00
44872;BME280;30602;51.060;17.226;2022-10-16T04:26:10;101624.65;;;12.32;100.00
44872;BME280;30602;51.060;17.226;2022-10-16T04:29:31;101626.35;;;12.39;100.00
44872;BME280;30602;51.060;17.226;2022-10-16T04:33:13;101624.98;;;12.43;100.00
44872;BME280;30602;51.060;17.226;2022-10-16T04:36:35;101625.20;;;12.47;100.00
44872;BME280;30602;51.060;17.226;2022-10-16T04:40:14;101624.60;;;12.42;100.00
44872;BME280;30602;51.060;17.226;2022-10-16T04:43:24;101629.95;;;12.41;100.00
44872;BME280;30602;51.060;17.226;2022-10-16T04:46:33;101636.66;;;12.36;100.00
44872;BME280;30602;51.060;17.226;2022-10-16T04:50:04;101643.88;;;12.32;100.00
44872;BME280;30602;51.060;17.226;2022-10-16T04:53:32;101647.51;;;12.32;100.00
44872;BME280;30602;51.060;17.226;2022-10-16T04:57:08;101650.08;;;12.29;100.00
44872;BME280;30602;51.060;17.226;2022-10-16T05:00:30;101648.34;;;12.30;100.00
44872;BME280;30602;51.060;17.226;2022-10-16T05:03:55;101650.03;;;12.28;100.00
44872;BME280;30602;51.060;17.226;2022-10-16T05:07:23;101642.33;;;12.24;100.00
44872;BME280;30602;51.060;17.226;2022-10-16T05:10:44;101642.73;;;12.19;100.00
44872;BME280;30602;51.060;17.226;2022-10-16T05:14:13;101648.13;;;12.14;100.00
44872;BME280;30602;51.060;17.226;2022-10-16T05:17:25;101651.19;;;12.14;100.00
44872;BME280;30602;51.060;17.226;2022-10-16T05:20:55;101653.16;;;12.11;100.00
44872;BME280;30602;51.060;17.226;2022-10-16T05:24:34;101655.88;;;12.13;100.00
44872;BME280;30602;51.060;17.226;2022-10-16T05:28:17;101660.05;;;12.17;100.00
44872;BME280;30602;51.060;17.226;2022-10-16T05:31:52;101661.28;;;12.15;100.00
44872;BME280;30602;51.060;17.226;2022-10-16T05:35:02;101659.48;;;12.16;100.00
44872;BME280;30602;51.060;17.226;2022-10-16T05:38:38;101659.77;;;12.10;100.00
44872;BME280;30602;51.060;17.226;2022-10-16T05:41:50;101662.38;;;12.14;100.00
44872;BME280;30602;51.060;17.226;2022-10-16T05:45:21;101665.45;;;12.15;100.00
44872;BME280;30602;51.060;17.226;2022-10-16T05:48:33;101661.84;;;12.19;100.00
44872;BME280;30602;51.060;17.226;2022-10-16T05:52:37;101656.33;;;12.24;100.00
44872;BME280;30602;51.060;17.226;2022-10-16T05:55:52;101663.47;;;12.36;100.00
44872;BME280;30602;51.060;17.226;2022-10-16T05:59:04;101667.50;;;12.41;100.00
44872;BME280;30602;51.060;17.226;2022-10-16T06:02:36;101665.02;;;12.45;100.00
44872;BME280;30602;51.060;17.226;2022-10-16T06:05:48;101669.84;;;12.55;100.00
44872;BME280;30602;51.060;17.226;2022-10-16T06:08:59;101672.97;;;12.67;100.00
44872;BME280;30602;51.060;17.226;2022-10-16T06:12:07;101680.01;;;12.75;100.00
44872;BME280;30602;51.060;17.226;2022-10-16T06:15:37;101687.16;;;12.80;100.00
44872;BME280;30602;51.060;17.226;2022-10-16T06:19:33;101691.17;;;12.90;100.00
44872;BME280;30602;51.060;17.226;2022-10-16T06:22:44;101695.17;;;12.99;100.00
44872;BME280;30602;51.060;17.226;2022-10-16T06:26:26;101702.93;;;13.01;100.00
44872;BME280;30602;51.060;17.226;2022-10-16T06:29:40;101706.23;;;13.10;100.00
44872;BME280;30602;51.060;17.226;2022-10-16T06:32:51;101706.27;;;13.18;100.00
44872;BME280;30602;51.060;17.226;2022-10-16T06:36:08;101705.03;;;13.26;100.00
44872;BME280;30602;51.060;17.226;2022-10-16T06:39:46;101689.76;;;13.31;100.00
44872;BME280;30602;51.060;17.226;2022-10-16T06:43:42;101707.70;;;13.53;100.00
44872;BME280;30602;51.060;17.226;2022-10-16T06:47:00;101713.77;;;13.58;100.00
44872;BME280;30602;51.060;17.226;2022-10-16T06:50:10;101722.17;;;13.63;100.00
44872;BME280;30602;51.060;17.226;2022-10-16T06:53:19;101721.78;;;13.65;100.00
44872;BME280;30602;51.060;17.226;2022-10-16T06:56:32;101725.66;;;13.73;100.00
44872;BME280;30602;51.060;17.226;2022-10-16T06:59:55;101729.51;;;13.76;100.00
44872;BME280;30602;51.060;17.226;2022-10-16T07:03:16;101736.16;;;13.83;100.00
44872;BME280;30602;51.060;17.226;2022-10-16T07:06:26;101738.82;;;13.90;100.00
44872;BME280;30602;51.060;17.226;2022-10-16T07:09:46;101739.72;;;13.97;100.00
44872;BME280;30602;51.060;17.226;2022-10-16T07:13:28;101744.73;;;14.00;100.00
44872;BME280;30602;51.060;17.226;2022-10-16T07:16:58;101750.58;;;14.00;100.00
44872;BME280;30602;51.060;17.226;2022-10-16T07:20:07;101754.19;;;14.02;100.00
44872;BME280;30602;51.060;17.226;2022-10-16T07:23:37;101748.35;;;14.00;100.00
44872;BME280;30602;51.060;17.226;2022-10-16T07:27:21;101763.97;;;14.04;100.00
44872;BME280;30602;51.060;17.226;2022-10-16T07:30:35;101766.49;;;14.08;100.00
44872;BME280;30602;51.060;17.226;2022-10-16T07:34:06;101770.20;;;14.02;100.00
44872;BME280;30602;51.060;17.226;2022-10-16T07:37:28;101770.27;;;14.04;100.00
44872;BME280;30602;51.060;17.226;2022-10-16T07:40:58;101765.93;;;14.17;100.00
44872;BME280;30602;51.060;17.226;2022-10-16T07:44:55;101767.25;;;14.23;100.00
44872;BME280;30602;51.060;17.226;2022-10-16T07:48:07;101763.13;;;14.27;100.00
44872;BME280;30602;51.060;17.226;2022-10-16T07:51:18;101767.51;;;14.36;100.00
44872;BME280;30602;51.060;17.226;2022-10-16T07:54:50;101759.37;;;14.46;100.00
44872;BME280;30602;51.060;17.226;2022-10-16T07:58:19;101766.61;;;14.56;100.00
44872;BME280;30602;51.060;17.226;2022-10-16T08:01:54;101765.95;;;14.65;100.00
44872;BME280;30602;51.060;17.226;2022-10-16T08:05:06;101768.08;;;14.78;100.00
44872;BME280;30602;51.060;17.226;2022-10-16T08:08:16;101767.10;;;14.87;99.52
44872;BME280;30602;51.060;17.226;2022-10-16T08:11:44;101769.39;;;15.00;98.98
44872;BME280;30602;51.060;17.226;2022-10-16T08:15:04;101772.78;;;15.16;98.24
44872;BME280;30602;51.060;17.226;2022-10-16T08:18:46;101774.16;;;15.23;97.75
44872;BME280;30602;51.060;17.226;2022-10-16T08:22:43;101767.44;;;15.34;97.31
44872;BME280;30602;51.060;17.226;2022-10-16T08:26:12;101777.39;;;15.44;96.10
44872;BME280;30602;51.060;17.226;2022-10-16T08:29:23;101780.46;;;15.48;95.82
44872;BME280;30602;51.060;17.226;2022-10-16T08:32:54;101786.46;;;15.56;95.75
44872;BME280;30602;51.060;17.226;2022-10-16T08:36:24;101787.76;;;15.65;95.92
44872;BME280;30602;51.060;17.226;2022-10-16T08:40:33;101796.96;;;15.69;96.13
44872;BME280;30602;51.060;17.226;2022-10-16T08:47:44;101790.15;;;15.87;94.97
44872;BME280;30602;51.060;17.226;2022-10-16T08:50:53;101790.38;;;15.95;94.68
44872;BME280;30602;51.060;17.226;2022-10-16T08:58:01;101795.64;;;16.06;94.28
44872;BME280;30602;51.060;17.226;2022-10-16T09:05:37;101801.57;;;16.24;93.15
44872;BME280;30602;51.060;17.226;2022-10-16T09:12:18;101814.30;;;16.44;93.52
44872;BME280;30602;51.060;17.226;2022-10-16T09:15:46;101810.87;;;16.50;92.49
44872;BME280;30602;51.060;17.226;2022-10-16T09:18:58;101811.18;;;16.55;92.88
44872;BME280;30602;51.060;17.226;2022-10-16T09:22:32;101815.87;;;16.56;92.61
44872;BME280;30602;51.060;17.226;2022-10-16T09:25:56;101815.73;;;16.66;93.33
44872;BME280;30602;51.060;17.226;2022-10-16T09:29:15;101814.62;;;16.72;92.49
44872;BME280;30602;51.060;17.226;2022-10-16T09:32:44;101810.67;;;16.78;93.35
44872;BME280;30602;51.060;17.226;2022-10-16T09:36:50;101823.34;;;16.91;92.51
44872;BME280;30602;51.060;17.226;2022-10-16T09:40:06;101823.43;;;17.11;92.56
44872;BME280;30602;51.060;17.226;2022-10-16T09:46:40;101817.40;;;17.25;92.00
44872;BME280;30602;51.060;17.226;2022-10-16T09:49:59;101822.30;;;17.30;92.30
44872;BME280;30602;51.060;17.226;2022-10-16T09:57:51;101814.27;;;17.36;90.92
44872;BME280;30602;51.060;17.226;2022-10-16T10:01:03;101811.39;;;17.48;91.09
44872;BME280;30602;51.060;17.226;2022-10-16T10:04:39;101812.73;;;17.48;90.37
44872;BME280;30602;51.060;17.226;2022-10-16T10:07:57;101814.73;;;17.49;90.41
44872;BME280;30602;51.060;17.226;2022-10-16T10:18:39;101806.42;;;17.77;87.19
44872;BME280;30602;51.060;17.226;2022-10-16T10:26:02;101801.92;;;17.88;87.57
44872;BME280;30602;51.060;17.226;2022-10-16T10:36:37;101814.31;;;18.35;85.41
44872;BME280;30602;51.060;17.226;2022-10-16T10:52:13;101810.11;;;18.68;84.04
44872;BME280;30602;51.060;17.226;2022-10-16T11:02:42;101789.91;;;19.16;83.10
44872;BME280;30602;51.060;17.226;2022-10-16T11:09:48;101801.54;;;19.45;77.85
44872;BME280;30602;51.060;17.226;2022-10-16T11:24:41;101788.62;;;19.62;78.63
44872;BME280;30602;51.060;17.226;2022-10-16T11:28:49;101785.22;;;19.68;78.43
44872;BME280;30602;51.060;17.226;2022-10-16T11:32:06;101788.16;;;19.80;78.29
44872;BME280;30602;51.060;17.226;2022-10-16T11:35:27;101784.59;;;19.76;77.37
44872;BME280;30602;51.060;17.226;2022-10-16T11:39:08;101779.17;;;19.65;77.06
44872;BME280;30602;51.060;17.226;2022-10-16T11:42:44;101776.33;;;19.51;77.77
44872;BME280;30602;51.060;17.226;2022-10-16T11:46:28;101776.98;;;19.51;77.16
44872;BME280;30602;51.060;17.226;2022-10-16T11:53:53;101783.50;;;19.68;76.63
44872;BME280;30602;51.060;17.226;2022-10-16T11:57:23;101783.12;;;19.80;75.98
44872;BME280;30602;51.060;17.226;2022-10-16T12:08:40;101783.37;;;19.64;76.02
44872;BME280;30602;51.060;17.226;2022-10-16T12:12:39;101801.91;;;19.52;75.79
44872;BME280;30602;51.060;17.226;2022-10-16T12:16:21;101796.88;;;19.42;77.33
44872;BME280;30602;51.060;17.226;2022-10-16T12:23:21;101804.98;;;19.16;78.47
44872;BME280;30602;51.060;17.226;2022-10-16T12:30:36;101827.55;;;19.14;78.28
44872;BME280;30602;51.060;17.226;2022-10-16T12:34:05;101828.91;;;19.09;78.81
44872;BME280;30602;51.060;17.226;2022-10-16T12:37:20;101839.20;;;18.91;79.62
44872;BME280;30602;51.060;17.226;2022-10-16T12:40:33;101841.07;;;18.93;79.06
44872;BME280;30602;51.060;17.226;2022-10-16T12:43:46;101853.30;;;18.78;79.79
44872;BME280;30602;51.060;17.226;2022-10-16T12:50:43;101858.32;;;18.67;79.29
44872;BME280;30602;51.060;17.226;2022-10-16T12:54:31;101858.13;;;18.63;80.05
44872;BME280;30602;51.060;17.226;2022-10-16T13:02:08;101865.54;;;18.66;80.34
44872;BME280;30602;51.060;17.226;2022-10-16T13:17:09;101868.06;;;18.70;81.88
44872;BME280;30602;51.060;17.226;2022-10-16T13:28:36;101869.09;;;18.72;82.44
44872;BME280;30602;51.060;17.226;2022-10-16T13:31:49;101872.39;;;18.77;81.85
44872;BME280;30602;51.060;17.226;2022-10-16T13:35:29;101882.62;;;18.69;82.20
44872;BME280;30602;51.060;17.226;2022-10-16T13:42:45;101881.22;;;18.70;81.36
44872;BME280;30602;51.060;17.226;2022-10-16T13:46:29;101874.43;;;18.80;80.59
44872;BME280;30602;51.060;17.226;2022-10-16T13:50:18;101874.95;;;18.76;81.15
44872;BME280;30602;51.060;17.226;2022-10-16T13:53:34;101883.61;;;18.85;80.38
44872;BME280;30602;51.060;17.226;2022-10-16T13:57:17;101882.71;;;18.98;81.15
44872;BME280;30602;51.060;17.226;2022-10-16T14:01:02;101881.41;;;19.16;80.40
44872;BME280;30602;51.060;17.226;2022-10-16T14:04:16;101877.92;;;19.22;79.48
44872;BME280;30602;51.060;17.226;2022-10-16T14:07:50;101873.91;;;19.21;79.06
44872;BME280;30602;51.060;17.226;2022-10-16T14:11:25;101876.80;;;19.26;78.64
44872;BME280;30602;51.060;17.226;2022-10-16T14:14:40;101879.41;;;19.35;78.74
44872;BME280;30602;51.060;17.226;2022-10-16T14:18:03;101886.85;;;19.36;78.49
44872;BME280;30602;51.060;17.226;2022-10-16T14:21:34;101893.99;;;19.38;78.08
44872;BME280;30602;51.060;17.226;2022-10-16T14:24:56;101899.22;;;19.29;78.41
44872;BME280;30602;51.060;17.226;2022-10-16T14:31:42;101908.80;;;19.26;78.18
44872;BME280;30602;51.060;17.226;2022-10-16T14:34:57;101906.95;;;19.20;78.16
44872;BME280;30602;51.060;17.226;2022-10-16T14:38:26;101908.45;;;19.18;78.37
44872;BME280;30602;51.060;17.226;2022-10-16T14:41:58;101900.27;;;19.16;78.75
44872;BME280;30602;51.060;17.226;2022-10-16T14:45:52;101898.40;;;19.04;79.34
44872;BME280;30602;51.060;17.226;2022-10-16T14:49:26;101914.19;;;19.04;78.63
44872;BME280;30602;51.060;17.226;2022-10-16T14:52:54;101914.59;;;18.99;78.69
44872;BME280;30602;51.060;17.226;2022-10-16T14:56:08;101912.98;;;18.91;79.30
44872;BME280;30602;51.060;17.226;2022-10-16T14:59:38;101915.84;;;18.81;79.62
44872;BME280;30602;51.060;17.226;2022-10-16T15:03:13;101924.95;;;18.81;79.91
44872;BME280;30602;51.060;17.226;2022-10-16T15:06:30;101925.90;;;18.70;80.47
44872;BME280;30602;51.060;17.226;2022-10-16T15:10:02;101931.71;;;18.66;80.91
44872;BME280;30602;51.060;17.226;2022-10-16T15:13:37;101933.22;;;18.60;80.86
44872;BME280;30602;51.060;17.226;2022-10-16T15:17:24;101934.89;;;18.55;81.43
44872;BME280;30602;51.060;17.226;2022-10-16T15:20:54;101930.28;;;18.46;81.82
44872;BME280;30602;51.060;17.226;2022-10-16T15:24:14;101929.82;;;18.37;82.07
44872;BME280;30602;51.060;17.226;2022-10-16T15:28:14;101931.58;;;18.23;82.83
44872;BME280;30602;51.060;17.226;2022-10-16T15:32:09;101940.62;;;18.13;83.27
44872;BME280;30602;51.060;17.226;2022-10-16T15:35:38;101947.41;;;18.08;83.59
44872;BME280;30602;51.060;17.226;2022-10-16T15:38:52;101932.66;;;17.93;83.77
44872;BME280;30602;51.060;17.226;2022-10-16T15:42:20;101939.52;;;17.98;83.66
44872;BME280;30602;51.060;17.226;2022-10-16T15:45:28;101944.26;;;17.88;84.13
44872;BME280;30602;51.060;17.226;2022-10-16T15:49:23;101945.37;;;17.81;84.33
44872;BME280;30602;51.060;17.226;2022-10-16T15:52:44;101949.67;;;17.63;84.83
44872;BME280;30602;51.060;17.226;2022-10-16T15:56:52;101946.20;;;17.50;85.25
44872;BME280;30602;51.060;17.226;2022-10-16T16:00:10;101956.07;;;17.28;85.94
44872;BME280;30602;51.060;17.226;2022-10-16T16:03:21;101965.91;;;17.22;86.33
44872;BME280;30602;51.060;17.226;2022-10-16T16:07:05;101966.27;;;17.22;86.76
44872;BME280;30602;51.060;17.226;2022-10-16T16:10:19;101968.99;;;17.22;86.71
44872;BME280;30602;51.060;17.226;2022-10-16T16:14:14;101973.53;;;17.10;87.31
44872;BME280;30602;51.060;17.226;2022-10-16T16:17:50;101982.10;;;17.09;87.33
44872;BME280;30602;51.060;17.226;2022-10-16T16:21:50;101990.05;;;17.05;87.46
44872;BME280;30602;51.060;17.226;2022-10-16T16:25:04;102001.23;;;17.02;87.74
44872;BME280;30602;51.060;17.226;2022-10-16T16:28:18;101993.30;;;16.86;88.15
44872;BME280;30602;51.060;17.226;2022-10-16T16:31:33;102007.32;;;16.99;88.23
44872;BME280;30602;51.060;17.226;2022-10-16T16:34:45;102013.77;;;16.94;88.49
44872;BME280;30602;51.060;17.226;2022-10-16T16:37:55;102020.47;;;16.96;88.40
44872;BME280;30602;51.060;17.226;2022-10-16T16:41:25;102022.12;;;16.83;88.67
44872;BME280;30602;51.060;17.226;2022-10-16T16:44:35;102019.23;;;16.70;89.10
44872;BME280;30602;51.060;17.226;2022-10-16T16:48:05;102017.91;;;16.58;89.58
44872;BME280;30602;51.060;17.226;2022-10-16T16:52:22;102033.09;;;16.51;90.03
44872;BME280;30602;51.060;17.226;2022-10-16T16:55:36;102033.96;;;16.47;90.09
44872;BME280;30602;51.060;17.226;2022-10-16T16:59:03;102040.32;;;16.43;90.34
44872;BME280;30602;51.060;17.226;2022-10-16T17:02:48;102040.40;;;16.45;90.44
44872;BME280;30602;51.060;17.226;2022-10-16T17:06:25;102043.94;;;16.44;90.46
44872;BME280;30602;51.060;17.226;2022-10-16T17:10:17;102051.83;;;16.36;90.80
44872;BME280;30602;51.060;17.226;2022-10-16T17:14:24;102057.41;;;16.25;91.17
44872;BME280;30602;51.060;17.226;2022-10-16T17:18:06;102069.05;;;16.19;91.03
44872;BME280;30602;51.060;17.226;2022-10-16T17:21:40;102070.82;;;16.02;91.63
44872;BME280;30602;51.060;17.226;2022-10-16T17:25:23;102080.56;;;15.98;91.74
44872;BME280;30602;51.060;17.226;2022-10-16T17:28:59;102092.23;;;15.91;92.26
44872;BME280;30602;51.060;17.226;2022-10-16T17:32:11;102094.66;;;15.98;92.16
44872;BME280;30602;51.060;17.226;2022-10-16T17:35:25;102092.20;;;15.90;92.31
44872;BME280;30602;51.060;17.226;2022-10-16T17:38:40;102100.89;;;15.89;92.30
44872;BME280;30602;51.060;17.226;2022-10-16T17:42:32;102110.17;;;15.84;92.88
44872;BME280;30602;51.060;17.226;2022-10-16T17:45:45;102119.45;;;15.80;92.89
44872;BME280;30602;51.060;17.226;2022-10-16T17:49:16;102121.19;;;15.73;93.02
44872;BME280;30602;51.060;17.226;2022-10-16T17:52:33;102120.12;;;15.58;93.18
44872;BME280;30602;51.060;17.226;2022-10-16T17:55:44;102122.42;;;15.51;93.32
44872;BME280;30602;51.060;17.226;2022-10-16T17:59:01;102128.10;;;15.36;92.93
44872;BME280;30602;51.060;17.226;2022-10-16T18:02:35;102126.91;;;15.32;93.63
44872;BME280;30602;51.060;17.226;2022-10-16T18:05:50;102130.48;;;15.29;94.47
44872;BME280;30602;51.060;17.226;2022-10-16T18:09:24;102135.32;;;15.22;95.12
44872;BME280;30602;51.060;17.226;2022-10-16T18:12:45;102137.58;;;15.19;95.18
44872;BME280;30602;51.060;17.226;2022-10-16T18:16:04;102143.65;;;15.10;96.00
44872;BME280;30602;51.060;17.226;2022-10-16T18:19:39;102149.20;;;15.07;96.19
44872;BME280;30602;51.060;17.226;2022-10-16T18:23:13;102150.45;;;15.12;96.41
44872;BME280;30602;51.060;17.226;2022-10-16T18:26:42;102155.84;;;15.14;96.48
44872;BME280;30602;51.060;17.226;2022-10-16T18:30:57;102162.66;;;15.14;96.43
44872;BME280;30602;51.060;17.226;2022-10-16T18:34:30;102162.77;;;15.19;96.40
44872;BME280;30602;51.060;17.226;2022-10-16T18:38:07;102163.26;;;15.13;96.68
44872;BME280;30602;51.060;17.226;2022-10-16T18:41:55;102166.17;;;15.13;97.06
44872;BME280;30602;51.060;17.226;2022-10-16T18:45:09;102164.16;;;15.15;96.87
44872;BME280;30602;51.060;17.226;2022-10-16T18:48:44;102162.98;;;15.12;97.24
44872;BME280;30602;51.060;17.226;2022-10-16T18:52:26;102173.53;;;15.18;97.06
44872;BME280;30602;51.060;17.226;2022-10-16T18:55:59;102173.03;;;15.16;96.82
44872;BME280;30602;51.060;17.226;2022-10-16T19:00:08;102182.41;;;15.14;96.68
44872;BME280;30602;51.060;17.226;2022-10-16T19:03:44;102190.29;;;15.13;96.73
44872;BME280;30602;51.060;17.226;2022-10-16T19:06:58;102201.57;;;15.06;96.72
44872;BME280;30602;51.060;17.226;2022-10-16T19:10:37;102200.16;;;14.96;96.79
44872;BME280;30602;51.060;17.226;2022-10-16T19:14:00;102200.00;;;14.90;97.45
44872;BME280;30602;51.060;17.226;2022-10-16T19:17:33;102205.54;;;14.96;97.74
44872;BME280;30602;51.060;17.226;2022-10-16T19:21:00;102213.45;;;14.94;97.70
44872;BME280;30602;51.060;17.226;2022-10-16T19:24:39;102216.80;;;15.05;97.69
44872;BME280;30602;51.060;17.226;2022-10-16T19:27:54;102218.34;;;15.06;97.47
44872;BME280;30602;51.060;17.226;2022-10-16T19:31:29;102212.80;;;15.01;97.67
44872;BME280;30602;51.060;17.226;2022-10-16T19:34:42;102224.84;;;15.07;97.36
44872;BME280;30602;51.060;17.226;2022-10-16T19:38:23;102231.40;;;15.02;97.47
44872;BME280;30602;51.060;17.226;2022-10-16T19:42:05;102231.60;;;14.94;97.58
44872;BME280;30602;51.060;17.226;2022-10-16T19:45:39;102230.04;;;14.86;97.50
44872;BME280;30602;51.060;17.226;2022-10-16T19:49:37;102229.09;;;14.79;97.62
44872;BME280;30602;51.060;17.226;2022-10-16T19:53:34;102234.81;;;14.64;97.79
44872;BME280;30602;51.060;17.226;2022-10-16T19:57:26;102242.38;;;14.52;97.85
44872;BME280;30602;51.060;17.226;2022-10-16T20:01:27;102255.28;;;14.38;98.38
44872;BME280;30602;51.060;17.226;2022-10-16T20:04:43;102263.84;;;14.25;98.40
44872;BME280;30602;51.060;17.226;2022-10-16T20:08:21;102260.84;;;14.16;99.06
44872;BME280;30602;51.060;17.226;2022-10-16T20:11:34;102267.72;;;14.08;99.36
44872;BME280;30602;51.060;17.226;2022-10-16T20:15:19;102269.73;;;14.00;99.01
44872;BME280;30602;51.060;17.226;2022-10-16T20:18:26;102274.14;;;13.87;98.62
44872;BME280;30602;51.060;17.226;2022-10-16T20:21:33;102278.05;;;13.77;98.19
44872;BME280;30602;51.060;17.226;2022-10-16T20:24:56;102288.38;;;13.65;97.64